Time;durP1;ratioP1;P1;durP2;ratioP2;P2;SDS_P1;SDS_P2;PMS_P1;PMS_P2;Temp;Humidity;BMP_temperature;BMP_pressure;BME280_temperature;BME280_humidity;BME280_pressure;Samples;Min_cycle;Max_cycle;Signal;HPM_P1;HPM_P2
2023/03/03 00:02:12;;;;;;;32.78;20.10;;;;;;;17.64;64.34;99567.31;5054519;28;20059;-58
2023/03/03 00:04:54;;;;;;;31.98;19.52;;;;;;;17.68;64.54;99569.34;5057784;28;20040;-58
2023/03/03 00:07:43;;;;;;;29.90;20.05;;;;;;;17.59;65.15;99570.66;5060006;28;20238;-59
2023/03/03 00:10:25;;;;;;;33.15;18.77;;;;;;;17.61;65.18;99571.28;5058088;28;20068;-59
2023/03/03 00:13:28;;;;;;;30.45;20.35;;;;;;;17.55;64.99;99582.81;5061104;28;20076;-58
2023/03/03 00:16:48;;;;;;;36.40;19.20;;;;;;;17.51;65.91;99574.38;5055297;28;20048;-60
2023/03/03 00:19:23;;;;;;;30.92;19.77;;;;;;;17.55;65.96;99590.03;5051141;28;20143;-60
2023/03/03 00:22:25;;;;;;;30.65;19.10;;;;;;;17.76;65.32;99585.16;5050445;28;20105;-60
2023/03/03 00:25:36;;;;;;;26.25;18.05;;;;;;;17.85;65.04;99583.84;5054227;28;20045;-60
2023/03/03 00:28:31;;;;;;;33.50;19.85;;;;;;;17.94;66.05;99587.91;5050581;28;20117;-59
2023/03/03 00:31:41;;;;;;;33.65;20.65;;;;;;;17.94;64.81;99590.59;5063404;28;20100;-60
2023/03/03 00:34:30;;;;;;;38.35;21.83;;;;;;;17.99;64.05;99599.84;5062852;28;20052;-60
2023/03/03 00:37:29;;;;;;;33.25;21.30;;;;;;;17.79;64.76;99587.41;5039387;28;20075;-60
2023/03/03 00:40:27;;;;;;;34.53;21.08;;;;;;;17.95;64.90;99596.78;5063794;28;20490;-61
2023/03/03 00:43:31;;;;;;;31.88;20.85;;;;;;;17.80;65.09;99599.75;5056929;28;20040;-59
2023/03/03 00:46:22;;;;;;;30.95;19.90;;;;;;;17.82;64.87;99595.03;5063986;28;20143;-61
2023/03/03 00:49:05;;;;;;;34.92;19.77;;;;;;;17.85;64.71;99594.56;5044507;28;20044;-60
2023/03/03 00:52:00;;;;;;;26.95;17.25;;;;;;;17.96;65.62;99593.06;5033813;28;20052;-62
2023/03/03 00:54:36;;;;;;;32.05;18.70;;;;;;;17.96;64.18;99598.44;5029818;28;20068;-60
2023/03/03 00:57:30;;;;;;;28.48;17.77;;;;;;;18.04;63.63;99602.69;5078257;28;20069;-60
2023/03/03 01:00:10;;;;;;;31.65;17.92;;;;;;;17.92;64.32;99602.59;5049084;28;20126;-60
2023/03/03 01:03:03;;;;;;;33.72;19.95;;;;;;;17.87;64.18;99603.25;5083392;28;20483;-61
2023/03/03 01:05:46;;;;;;;32.80;18.45;;;;;;;17.78;65.03;99607.22;5021989;28;20063;-60
2023/03/03 01:08:45;;;;;;;34.60;20.77;;;;;;;17.78;65.00;99612.56;5065914;28;20044;-61
2023/03/03 01:11:25;;;;;;;38.55;22.70;;;;;;;17.81;65.21;99609.44;5067585;28;20148;-60
2023/03/03 01:14:14;;;;;;;34.13;20.60;;;;;;;17.96;66.33;99606.47;5079769;28;20143;-60
2023/03/03 01:16:58;;;;;;;31.83;21.45;;;;;;;18.05;64.06;99615.06;5050266;28;20041;-60
2023/03/03 01:19:46;;;;;;;33.92;19.77;;;;;;;18.05;65.42;99615.06;5067488;28;20044;-60
2023/03/03 01:22:28;;;;;;;31.90;18.70;;;;;;;18.09;64.07;99621.63;5074260;28;20121;-59
2023/03/03 01:25:17;;;;;;;27.98;18.15;;;;;;;18.11;63.73;99615.00;5089823;28;20101;-60
2023/03/03 01:27:59;;;;;;;29.15;17.55;;;;;;;18.05;63.77;99621.25;5078230;28;20035;-61
2023/03/03 01:30:54;;;;;;;27.02;17.13;;;;;;;18.24;64.10;99624.78;5090178;28;20050;-60
2023/03/03 01:33:31;;;;;;;34.60;18.67;;;;;;;17.95;64.18;99627.09;5107964;28;20055;-60
2023/03/03 01:36:25;;;;;;;41.00;19.83;;;;;;;17.88;64.51;99625.47;5088491;28;20064;-60
2023/03/03 01:39:07;;;;;;;33.72;17.80;;;;;;;17.92;64.81;99632.06;5071040;28;20044;-60
2023/03/03 01:41:56;;;;;;;26.40;17.20;;;;;;;17.93;64.65;99631.00;5101466;28;20042;-60
2023/03/03 01:44:39;;;;;;;34.95;18.10;;;;;;;17.92;65.09;99637.44;5078427;28;20044;-61
2023/03/03 01:47:32;;;;;;;37.92;19.13;;;;;;;17.90;64.44;99651.03;5104450;28;20471;-60
2023/03/03 01:50:33;;;;;;;36.90;20.00;;;;;;;17.80;65.28;99653.34;5087571;28;20730;-60
2023/03/03 01:53:32;;;;;;;41.85;20.25;;;;;;;18.16;63.91;99659.91;5083871;28;20059;-60
2023/03/03 01:56:36;;;;;;;37.92;22.48;;;;;;;18.16;63.34;99659.91;5083142;28;20049;-60
2023/03/03 01:59:31;;;;;;;35.15;22.80;;;;;;;18.42;63.07;99660.53;5076583;28;20067;-60
2023/03/03 02:02:21;;;;;;;43.05;25.88;;;;;;;18.21;62.66;99660.09;5080506;28;20044;-60
2023/03/03 02:05:04;;;;;;;39.65;23.50;;;;;;;18.38;64.39;99669.22;5071148;28;20063;-61
2023/03/03 02:07:53;;;;;;;32.55;19.02;;;;;;;18.52;62.10;99669.94;5087152;28;20048;-60
2023/03/03 02:10:37;;;;;;;32.47;19.75;;;;;;;18.51;63.52;99677.16;5069298;28;20047;-60
2023/03/03 02:13:25;;;;;;;38.83;19.08;;;;;;;18.53;61.37;99680.50;5093692;28;20056;-60
2023/03/03 02:16:08;;;;;;;34.65;19.85;;;;;;;18.47;61.37;99685.88;5083565;28;20040;-60
2023/03/03 02:18:56;;;;;;;36.88;20.98;;;;;;;18.45;62.04;99686.09;5086865;28;20431;-60
2023/03/03 02:21:45;;;;;;;49.95;22.40;;;;;;;18.42;62.02;99686.53;5075452;28;20044;-60
2023/03/03 02:24:47;;;;;;;56.20;23.90;;;;;;;18.74;nan;99696.19;5086297;28;22586;-61
2023/03/03 02:27:36;;;;;;;47.78;24.40;;;;;;;18.92;61.47;99695.41;5086682;28;20044;-61
2023/03/03 02:30:28;;;;;;;45.70;23.27;;;;;;;19.00;62.47;99695.09;5086664;28;20063;-61
2023/03/03 02:33:10;;;;;;;40.45;20.50;;;;;;;19.32;61.55;99706.53;5048918;28;20048;-60
2023/03/03 02:36:01;;;;;;;38.50;19.92;;;;;;;19.38;59.49;99708.34;5082664;28;20083;-60
2023/03/03 02:39:04;;;;;;;43.83;21.42;;;;;;;18.91;60.25;99717.09;5068665;28;20055;-60
2023/03/03 02:42:05;;;;;;;33.95;18.30;;;;;;;19.17;60.10;99717.63;5082232;28;20129;-61
2023/03/03 02:44:52;;;;;;;34.50;18.90;;;;;;;18.96;60.53;99719.94;5056755;28;20504;-60
2023/03/03 02:47:41;;;;;;;36.63;18.52;;;;;;;19.11;60.51;99723.09;5085515;28;20477;-61
2023/03/03 02:50:24;;;;;;;29.90;17.77;;;;;;;19.12;59.40;99730.09;5085200;28;20060;-61
2023/03/03 02:53:13;;;;;;;36.72;18.15;;;;;;;19.07;60.43;99738.00;5073063;28;20471;-60
2023/03/03 02:56:03;;;;;;;34.55;16.58;;;;;;;19.18;60.50;99748.81;5060718;28;20080;-60
2023/03/03 02:58:51;;;;;;;25.13;15.45;;;;;;;19.24;59.54;99744.44;5050417;28;20040;-61
2023/03/03 03:01:37;;;;;;;34.40;16.02;;;;;;;19.36;60.19;99753.38;5065134;28;20048;-59
2023/03/03 03:04:29;;;;;;;33.90;15.52;;;;;;;19.33;59.81;99758.41;5055478;28;20049;-59
2023/03/03 03:07:11;;;;;;;31.38;15.07;;;;;;;19.23;60.30;99764.28;5083685;28;20075;-61
2023/03/03 03:10:00;;;;;;;34.85;15.73;;;;;;;19.40;59.79;99764.50;5061055;28;20048;-60
2023/03/03 03:12:55;;;;;;;33.33;15.50;;;;;;;19.34;60.47;99763.53;5065258;28;20064;-60
2023/03/03 03:15:31;;;;;;;26.48;14.57;;;;;;;19.57;59.06;99766.41;5053205;28;20111;-60
2023/03/03 03:18:26;;;;;;;28.05;15.18;;;;;;;19.58;58.96;99775.28;5055415;28;20155;-59
2023/03/03 03:21:07;;;;;;;28.73;14.50;;;;;;;19.43;59.12;99772.13;5065855;28;20136;-60
2023/03/03 03:23:56;;;;;;;29.50;14.45;;;;;;;19.69;58.95;99769.97;5066065;28;20058;-60
2023/03/03 03:26:50;;;;;;;34.30;15.05;;;;;;;19.91;57.53;99777.59;5054300;28;20048;-60
2023/03/03 03:29:33;;;;;;;;;;;;;;;20.06;57.69;99778.00;5068890;28;20044;-60
2023/03/03 03:32:23;;;;;;;31.25;15.07;;;;;;;20.53;56.75;99777.13;5081342;28;19929;-60
2023/03/03 03:35:07;;;;;;;27.17;14.70;;;;;;;20.65;55.67;99781.72;5064341;28;20076;-60
2023/03/03 03:37:55;;;;;;;28.95;14.15;;;;;;;21.16;55.99;99781.09;5063389;28;20801;-61
2023/03/03 03:40:37;;;;;;;25.25;13.77;;;;;;;22.29;51.68;99781.31;5067184;28;20048;-59
2023/03/03 03:43:26;;;;;;;27.35;13.88;;;;;;;23.11;49.03;99774.34;5066094;28;20055;-60
2023/03/03 03:46:15;;;;;;;30.60;14.75;;;;;;;23.24;49.30;99787.50;5043421;28;20720;-60
2023/03/03 03:49:04;;;;;;;24.25;13.07;;;;;;;23.16;49.21;99792.53;5062037;28;20045;-60
2023/03/03 03:51:48;;;;;;;25.70;14.33;;;;;;;23.04;48.79;99794.50;5063210;28;20045;-60
2023/03/03 03:54:39;;;;;;;26.85;14.55;;;;;;;23.67;49.02;99796.78;5051077;28;20044;-61
2023/03/03 03:57:21;;;;;;;18.75;12.23;;;;;;;24.82;46.32;99791.00;5065865;28;20058;-60
2023/03/03 04:00:11;;;;;;;35.08;15.00;;;;;;;25.32;43.72;99787.84;5080001;28;20429;-60
2023/03/03 04:03:00;;;;;;;26.88;13.63;;;;;;;25.92;41.91;99784.66;5067062;28;20127;-60
2023/03/03 04:05:52;;;;;;;26.00;14.35;;;;;;;26.72;41.13;99785.94;5046226;28;20051;-60
2023/03/03 04:08:34;;;;;;;22.70;14.00;;;;;;;26.83;40.88;99787.53;5078249;28;20068;-59
2023/03/03 04:11:26;;;;;;;18.80;12.45;;;;;;;27.06;40.39;99786.22;5053888;28;20056;-61
2023/03/03 04:14:10;;;;;;;30.13;14.30;;;;;;;27.12;39.64;99787.03;5051271;28;20684;-60
2023/03/03 04:17:00;;;;;;;20.52;13.05;;;;;;;27.52;40.28;99792.41;5065664;28;20036;-60
2023/03/03 04:19:42;;;;;;;26.45;14.38;;;;;;;27.64;39.11;99790.19;5055719;28;20122;-60
2023/03/03 04:22:32;;;;;;;36.22;17.10;;;;;;;27.41;39.08;99789.94;5046946;28;20072;-60
2023/03/03 04:25:16;;;;;;;40.40;19.02;;;;;;;27.70;36.73;99796.44;5078250;28;20040;-59
2023/03/03 04:28:05;;;;;;;32.13;17.13;;;;;;;28.35;36.81;99794.50;5069377;28;20097;-59
2023/03/03 04:31:03;;;;;;;32.50;14.75;;;;;;;28.48;37.60;99796.59;5083341;28;20626;-60
2023/03/03 04:33:39;;;;;;;32.30;16.15;;;;;;;28.30;35.37;99789.91;5078872;28;20059;-60
2023/03/03 04:36:36;;;;;;;26.75;15.63;;;;;;;28.05;35.56;99796.28;5080264;28;20128;-60
2023/03/03 04:39:12;;;;;;;30.35;15.52;;;;;;;28.48;36.51;99804.78;5067408;28;20052;-61
2023/03/03 04:42:10;;;;;;;22.90;13.32;;;;;;;28.54;37.16;99799.00;5076372;28;20518;-60
2023/03/03 04:44:47;;;;;;;21.25;12.70;;;;;;;28.44;37.44;99798.25;5068041;28;20045;-60
2023/03/03 04:47:36;;;;;;;31.90;14.65;;;;;;;28.30;36.31;99795.34;5063165;28;20377;-60
2023/03/03 04:50:19;;;;;;;36.88;15.35;;;;;;;28.49;37.70;99790.88;5062228;28;20040;-60
2023/03/03 04:53:09;;;;;;;34.33;15.57;;;;;;;28.71;37.31;99795.91;5077554;28;20593;-61
2023/03/03 04:55:52;;;;;;;39.55;16.83;;;;;;;28.99;36.71;99795.13;5070473;28;20552;-60
2023/03/03 04:58:49;;;;;;;38.22;15.60;;;;;;;29.08;36.90;99792.56;5065309;28;20618;-60
2023/03/03 05:01:25;;;;;;;34.45;14.80;;;;;;;28.88;36.25;99787.31;5054208;28;20048;-60
2023/03/03 05:04:15;;;;;;;;;;;;;;;28.79;36.72;99791.75;5080054;28;20099;-60
2023/03/03 05:07:03;;;;;;;27.73;12.55;;;;;;;28.93;34.61;99792.72;5066884;28;20010;-61
2023/03/03 05:09:45;;;;;;;33.92;14.52;;;;;;;29.23;35.00;99791.63;5064694;28;20068;-60
2023/03/03 05:12:34;;;;;;;45.50;15.73;;;;;;;28.95;36.33;99793.25;5063176;28;20044;-60
2023/03/03 05:15:16;;;;;;;37.25;14.82;;;;;;;28.51;37.32;99796.03;5063042;28;20101;-60
2023/03/03 05:18:05;;;;;;;27.83;13.07;;;;;;;28.58;37.38;99782.91;5064508;28;20064;-60
2023/03/03 05:20:49;;;;;;;25.00;13.50;;;;;;;28.62;36.28;99788.59;5064936;28;20053;-61
2023/03/03 05:23:37;;;;;;;61.40;16.58;;;;;;;28.73;36.85;99782.78;5065562;28;20053;-61
2023/03/03 05:26:19;;;;;;;44.55;13.70;;;;;;;28.51;35.92;99777.75;5065302;28;20032;-63
2023/03/03 05:29:09;;;;;;;65.22;16.02;;;;;;;28.40;37.38;99784.38;5066854;28;20054;-66
2023/03/03 05:31:51;;;;;;;116.43;20.42;;;;;;;28.78;36.98;99776.47;5067084;28;20045;-62
2023/03/03 05:34:40;;;;;;;35.15;14.48;;;;;;;28.23;36.08;99780.41;5067167;28;20052;-63
2023/03/03 05:37:29;;;;;;;32.67;13.07;;;;;;;28.48;35.76;99780.25;5055884;28;20489;-63
2023/03/03 05:40:13;;;;;;;45.03;14.25;;;;;;;28.67;37.27;99777.66;5072681;28;20072;-63
2023/03/03 05:43:01;;;;;;;56.22;15.23;;;;;;;28.61;36.83;99779.59;5074586;28;20089;-62
2023/03/03 05:45:50;;;;;;;28.58;12.00;;;;;;;28.64;37.58;99776.28;5068905;28;20125;-61
2023/03/03 05:48:32;;;;;;;23.63;10.80;;;;;;;28.81;35.28;99782.19;5063172;28;20052;-62
2023/03/03 05:51:21;;;;;;;31.95;12.05;;;;;;;29.05;36.24;99778.69;5068280;28;20044;-63
2023/03/03 05:54:03;;;;;;;16.10;8.80;;;;;;;28.94;34.77;99786.97;5063081;28;20156;-63
2023/03/03 05:56:58;;;;;;;15.88;7.70;;;;;;;28.67;35.51;99788.56;5078845;28;20648;-62
2023/03/03 05:59:47;;;;;;;23.42;11.38;;;;;;;28.69;35.41;99789.88;5090487;28;20048;-62
2023/03/03 06:02:45;;;;;;;20.95;10.43;;;;;;;28.57;36.13;99794.91;5090754;28;20047;-63
2023/03/03 06:05:27;;;;;;;25.35;11.18;;;;;;;28.48;37.69;99793.88;5092530;28;20059;-60
2023/03/03 06:08:16;;;;;;;13.95;7.55;;;;;;;28.26;35.64;99788.84;5091492;28;20162;-63
2023/03/03 06:10:58;;;;;;;30.25;9.95;;;;;;;28.46;37.41;99787.88;5076325;28;20052;-62
2023/03/03 06:13:47;;;;;;;21.42;11.80;;;;;;;28.75;37.48;99790.69;5082668;28;20371;-61
2023/03/03 06:16:29;;;;;;;23.33;11.07;;;;;;;28.38;36.57;99789.28;5089954;28;20112;-62
2023/03/03 06:19:18;;;;;;;23.25;10.30;;;;;;;28.21;36.87;99788.84;5084743;28;20151;-62
2023/03/03 06:22:00;;;;;;;16.75;8.35;;;;;;;28.23;37.80;99774.97;5084648;28;20063;-61
2023/03/03 06:24:51;;;;;;;20.17;11.02;;;;;;;28.36;38.19;99769.69;5084630;28;20074;-66
2023/03/03 06:27:34;;;;;;;15.38;8.48;;;;;;;28.25;37.72;99768.13;5085940;28;20474;-62
2023/03/03 06:30:22;;;;;;;18.90;7.07;;;;;;;28.48;35.92;99759.25;5084217;28;20055;-63
2023/03/03 06:33:05;;;;;;;22.03;9.83;;;;;;;28.07;37.63;99760.56;5086780;28;20071;-62
2023/03/03 06:35:59;;;;;;;17.85;10.95;;;;;;;28.27;37.37;99749.59;5085186;28;20052;-72
2023/03/03 06:38:46;;;;;;;14.65;7.50;;;;;;;28.35;36.60;99757.16;5083503;28;20040;-68
2023/03/03 06:41:34;;;;;;;13.00;6.32;;;;;;;28.26;35.95;99758.84;5086380;28;20040;-66
2023/03/03 06:44:16;;;;;;;14.02;7.25;;;;;;;28.41;35.09;99744.31;5073066;28;20059;-70
2023/03/03 06:47:08;;;;;;;15.48;9.68;;;;;;;28.25;36.82;99746.31;5086504;28;20044;-66
2023/03/03 06:49:50;;;;;;;22.02;10.18;;;;;;;28.40;35.86;99738.06;5087147;28;20052;-70
2023/03/03 06:52:39;;;;;;;16.52;9.88;;;;;;;28.45;36.86;99724.41;5086081;28;20713;-69
2023/03/03 06:55:22;;;;;;;17.90;8.50;;;;;;;28.09;34.61;99720.25;5085889;28;20079;-69
2023/03/03 06:58:18;;;;;;;23.33;9.77;;;;;;;28.20;37.66;99719.09;5072272;28;20049;-69
2023/03/03 07:01:01;;;;;;;13.48;6.75;;;;;;;28.15;34.43;99715.63;5066196;28;20047;-69
2023/03/03 07:03:49;;;;;;;11.38;5.10;;;;;;;27.87;32.61;99707.03;5065883;28;20068;-70
2023/03/03 07:06:31;;;;;;;14.82;7.13;;;;;;;28.11;34.16;99707.19;5048047;28;20573;-69
2023/03/03 07:09:32;;;;;;;11.95;6.40;;;;;;;28.05;35.61;99705.56;5064273;28;20040;-67
2023/03/03 07:12:34;;;;;;;16.90;8.13;;;;;;;27.94;36.12;99698.56;5048023;28;20455;-69
2023/03/03 07:15:26;;;;;;;17.00;7.78;;;;;;;28.09;36.25;99690.28;5065840;28;20537;-70
2023/03/03 07:18:24;;;;;;;22.55;9.50;;;;;;;27.81;37.78;99683.66;5057706;28;20071;-61
2023/03/03 07:21:27;;;;;;;11.63;6.95;;;;;;;27.82;35.71;99684.47;5066667;28;20133;-63
2023/03/03 07:24:19;;;;;;;13.63;5.37;;;;;;;27.93;37.62;99683.31;5055204;28;20566;-63
2023/03/03 07:27:30;;;;;;;16.25;6.18;;;;;;;28.02;38.35;99682.44;5069123;28;20642;-65
2023/03/03 07:30:28;;;;;;;16.13;6.60;;;;;;;27.97;34.80;99678.94;5067214;28;20133;-61
2023/03/03 07:33:24;;;;;;;12.88;6.50;;;;;;;27.96;38.56;99675.41;5064835;28;20751;-65
2023/03/03 07:36:42;;;;;;;12.57;6.45;;;;;;;28.04;35.41;99672.06;5064032;28;20622;-62
2023/03/03 07:39:30;;;;;;;13.40;6.55;;;;;;;28.08;37.10;99667.69;5065262;28;20079;-65
2023/03/03 07:42:28;;;;;;;12.02;7.32;;;;;;;27.86;37.92;99659.13;5071814;28;20055;-62
2023/03/03 07:45:33;;;;;;;12.20;5.65;;;;;;;27.78;35.95;99650.75;5065308;28;20048;-67
2023/03/03 07:48:42;;;;;;;15.20;6.55;;;;;;;27.71;35.16;99642.88;5075547;28;20056;-70
2023/03/03 07:51:26;;;;;;;14.07;6.25;;;;;;;27.75;37.09;99643.13;5073540;28;20055;-69
2023/03/03 07:54:21;;;;;;;15.57;7.30;;;;;;;27.79;39.55;99634.13;5072137;28;20059;-65
2023/03/03 07:57:12;;;;;;;18.50;7.05;;;;;;;27.82;37.46;99639.00;5052999;28;20048;-62
2023/03/03 08:00:17;;;;;;;19.60;7.90;;;;;;;27.59;38.62;99634.25;5072924;28;20044;-73
2023/03/03 08:03:02;;;;;;;19.08;8.38;;;;;;;27.50;38.89;99625.84;5064290;28;20063;-64
2023/03/03 08:05:57;;;;;;;18.63;7.45;;;;;;;27.49;40.87;99626.94;5063741;28;20045;-68
2023/03/03 08:08:35;;;;;;;15.15;7.30;;;;;;;27.56;38.32;99632.09;5046696;28;20044;-68
2023/03/03 08:11:31;;;;;;;19.63;8.73;;;;;;;27.57;37.08;99626.34;5062864;28;20056;-69
2023/03/03 08:14:14;;;;;;;13.90;8.00;;;;;;;27.54;37.39;99620.66;5061960;28;20053;-68
2023/03/03 08:17:25;;;;;;;14.20;8.07;;;;;;;27.55;39.39;99620.38;5062862;28;20036;-70
2023/03/03 08:20:07;;;;;;;;;;;;;;;27.38;36.82;99611.75;5065925;28;20044;-69
2023/03/03 08:23:02;;;;;;;12.30;5.43;;;;;;;27.43;35.15;99609.00;5061914;28;20217;-69
2023/03/03 08:25:39;;;;;;;15.00;5.95;;;;;;;27.37;37.31;99598.41;5064494;28;20114;-68
2023/03/03 08:28:28;;;;;;;17.20;6.72;;;;;;;27.33;37.21;99591.91;5063269;28;20063;-68
2023/03/03 08:31:17;;;;;;;12.98;6.97;;;;;;;27.29;39.14;99582.69;5036460;28;20048;-70
2023/03/03 08:34:18;;;;;;;17.20;6.88;;;;;;;27.40;37.69;99587.78;5063071;28;20052;-67
2023/03/03 08:37:07;;;;;;;10.95;5.63;;;;;;;27.38;36.86;99579.09;5046795;28;20041;-70
2023/03/03 08:39:49;;;;;;;12.45;5.68;;;;;;;27.47;36.85;99571.97;5063253;28;20488;-68
2023/03/03 08:42:38;;;;;;;19.42;7.47;;;;;;;27.51;37.63;99566.78;5046545;28;20052;-73
2023/03/03 08:45:21;;;;;;;8.38;4.97;;;;;;;27.27;36.49;99567.44;5062928;28;20051;-66
2023/03/03 08:48:09;;;;;;;12.27;5.07;;;;;;;27.26;35.32;99562.31;5061036;28;20048;-63
2023/03/03 08:50:51;;;;;;;13.98;5.18;;;;;;;27.29;35.12;99564.44;5063787;28;20135;-66
2023/03/03 08:53:40;;;;;;;12.02;5.88;;;;;;;27.14;35.33;99559.06;5064356;28;20048;-68
2023/03/03 08:56:29;;;;;;;9.40;5.03;;;;;;;27.12;37.61;99561.28;5064051;28;20060;-70
2023/03/03 08:59:12;;;;;;;13.35;6.78;;;;;;;27.02;37.93;99548.53;5096299;28;20044;-65
2023/03/03 09:02:01;;;;;;;13.40;5.90;;;;;;;26.89;39.41;99542.88;5064604;28;20680;-66
2023/03/03 09:04:43;;;;;;;14.65;7.20;;;;;;;26.89;39.03;99540.97;5081450;28;20063;-66
2023/03/03 09:07:32;;;;;;;11.18;6.72;;;;;;;26.89;39.30;99532.84;5094651;28;20078;-62
2023/03/03 09:10:16;;;;;;;14.52;6.70;;;;;;;26.71;39.65;99531.50;5084328;28;20071;-60
2023/03/03 09:13:15;;;;;;;12.55;6.63;;;;;;;26.76;38.78;99522.53;5072247;28;20650;-66
2023/03/03 09:15:57;;;;;;;13.27;6.05;;;;;;;26.64;39.85;99519.31;5063996;28;20487;-65
2023/03/03 09:18:52;;;;;;;11.82;5.32;;;;;;;26.55;37.96;99510.13;5071496;28;20044;-66
2023/03/03 09:21:33;;;;;;;15.95;6.72;;;;;;;26.53;39.74;99513.09;5101283;28;20485;-66
2023/03/03 09:24:28;;;;;;;12.93;5.95;;;;;;;26.56;38.98;99517.97;5087313;28;20105;-66
2023/03/03 09:27:29;;;;;;;7.60;4.45;;;;;;;26.65;37.19;99510.88;5089400;28;20104;-69
2023/03/03 09:30:33;;;;;;;13.13;6.10;;;;;;;26.76;37.46;99508.94;5090606;28;20040;-68
2023/03/03 09:33:50;;;;;;;13.95;6.03;;;;;;;26.70;37.55;99497.25;5085559;28;20044;-71
2023/03/03 09:36:37;;;;;;;12.13;6.35;;;;;;;26.56;40.10;99498.94;5078089;28;20079;-69
2023/03/03 09:39:32;;;;;;;15.35;6.95;;;;;;;26.51;39.06;99493.53;5079457;28;20101;-69
2023/03/03 09:43:02;;;;;;;12.18;5.70;;;;;;;26.72;39.61;99486.94;5078373;28;20051;-69
2023/03/03 09:45:56;;;;;;;16.88;5.68;;;;;;;26.67;39.15;99480.72;5078626;28;20137;-65
2023/03/03 09:49:18;;;;;;;10.73;4.70;;;;;;;26.59;36.51;99484.00;5061679;28;20068;-61
2023/03/03 09:52:33;;;;;;;11.40;4.78;;;;;;;26.55;37.13;99483.75;5062663;28;20413;-64
2023/03/03 09:55:49;;;;;;;11.98;6.15;;;;;;;26.48;37.97;99472.34;5084726;28;20109;-65
2023/03/03 09:58:55;;;;;;;32.60;8.23;;;;;;;26.30;38.61;99471.06;5048005;28;20466;-64
2023/03/03 10:02:16;;;;;;;12.98;5.63;;;;;;;26.29;37.36;99469.41;5086811;28;20113;-63
2023/03/03 10:05:11;;;;;;;8.00;4.85;;;;;;;26.35;38.88;99467.50;5082048;28;20044;-61
2023/03/03 10:08:02;;;;;;;11.50;5.57;;;;;;;26.41;40.18;99460.97;5079003;28;20073;-63
2023/03/03 10:11:07;;;;;;;13.20;5.07;;;;;;;26.54;39.00;99454.94;5081254;28;20048;-62
2023/03/03 10:14:10;;;;;;;13.00;6.45;;;;;;;26.69;38.27;99456.75;5079389;28;20055;-62
2023/03/03 10:17:20;;;;;;;11.32;4.45;;;;;;;26.78;37.31;99450.47;5077336;28;20139;-63
2023/03/03 10:20:34;;;;;;;12.48;4.32;;;;;;;26.82;37.01;99451.53;5078892;28;20067;-63
2023/03/03 10:23:45;;;;;;;13.02;4.55;;;;;;;26.80;37.13;99448.28;5083235;28;20047;-63
2023/03/03 10:26:47;;;;;;;13.52;4.40;;;;;;;26.72;36.08;99457.03;5080314;28;20071;-65
2023/03/03 10:29:52;;;;;;;14.52;5.07;;;;;;;26.65;37.31;99445.66;5081617;28;20047;-65
2023/03/03 10:33:09;;;;;;;13.35;4.63;;;;;;;26.51;37.08;99446.53;5080858;28;20055;-65
2023/03/03 10:36:16;;;;;;;8.93;4.60;;;;;;;26.48;38.02;99444.38;5083876;28;20071;-62
2023/03/03 10:39:29;;;;;;;8.02;4.50;;;;;;;26.50;39.00;99431.34;5048822;28;20052;-62
2023/03/03 10:42:10;;;;;;;9.93;5.53;;;;;;;26.51;39.75;99435.69;5084058;28;20097;-61
2023/03/03 10:45:25;;;;;;;9.95;4.72;;;;;;;26.54;39.02;99427.78;5061055;28;20750;-62
2023/03/03 10:48:10;;;;;;;10.55;4.97;;;;;;;26.58;39.44;99434.28;5076883;28;20042;-62
2023/03/03 10:51:22;;;;;;;10.10;4.93;;;;;;;26.33;39.39;99424.31;5079713;28;20044;-62
2023/03/03 10:54:21;;;;;;;11.40;4.68;;;;;;;26.41;40.33;99433.00;5076150;28;20051;-63
2023/03/03 10:57:35;;;;;;;12.82;4.30;;;;;;;26.45;37.55;99437.59;5083779;28;20108;-61
2023/03/03 11:00:30;;;;;;;8.60;4.80;;;;;;;26.38;37.39;99435.16;5061003;28;20053;-61
2023/03/03 11:03:43;;;;;;;7.38;3.95;;;;;;;26.26;37.56;99433.84;4714730;28;10001339;-62
2023/03/03 11:07:36;;;;;;;15.07;4.75;;;;;;;26.22;40.29;99430.06;5050056;28;20855;-63
2023/03/03 11:10:43;;;;;;;8.18;4.53;;;;;;;26.19;40.08;99430.59;4960395;28;20084;-62
2023/03/03 11:13:45;;;;;;;14.70;4.28;;;;;;;26.06;39.45;99425.75;4966798;28;20046;-61
2023/03/03 11:16:47;;;;;;;8.65;4.40;;;;;;;25.91;38.14;99421.16;5059479;28;20057;-68
2023/03/03 11:19:29;;;;;;;9.48;4.00;;;;;;;25.90;39.54;99423.06;5061981;28;20079;-66
2023/03/03 11:22:37;;;;;;;12.38;4.82;;;;;;;25.80;41.67;99414.94;5062139;28;20129;-66
2023/03/03 11:25:39;;;;;;;8.93;5.03;;;;;;;25.70;41.98;99416.88;5068169;28;20079;-66
2023/03/03 11:28:28;;;;;;;12.90;4.75;;;;;;;25.52;42.57;99422.81;5064975;28;20075;-68
2023/03/03 11:31:24;;;;;;;17.27;5.10;;;;;;;25.47;42.72;99418.22;5068766;28;20516;-66
2023/03/03 11:34:30;;;;;;;9.73;4.25;;;;;;;25.36;42.90;99409.25;5069248;28;20056;-63
2023/03/03 11:37:18;;;;;;;9.75;3.65;;;;;;;25.30;43.07;99414.97;5072243;28;20032;-66
2023/03/03 11:40:17;;;;;;;7.60;3.50;;;;;;;25.15;41.76;99402.19;5069031;28;20755;-68
2023/03/03 11:43:26;;;;;;;8.88;3.72;;;;;;;25.19;42.38;99399.75;5072012;28;20040;-66
2023/03/03 11:46:49;;;;;;;6.93;3.65;;;;;;;25.16;43.96;99394.88;5074761;28;20044;-67
2023/03/03 11:50:16;;;;;;;8.65;4.40;;;;;;;25.19;42.85;99397.03;5066525;28;20049;-67
2023/03/03 11:53:37;;;;;;;8.43;4.05;;;;;;;25.11;43.60;99403.00;5002823;28;20046;-67
2023/03/03 11:56:46;;;;;;;12.10;3.80;;;;;;;25.05;43.19;99399.47;5005445;28;20058;-66
2023/03/03 12:00:15;;;;;;;11.88;3.83;;;;;;;25.02;42.11;99403.53;5083101;28;20054;-66
2023/03/03 12:03:34;;;;;;;10.35;5.72;;;;;;;24.92;41.82;99405.41;4972806;28;20733;-66
2023/03/03 12:06:53;;;;;;;16.35;5.25;;;;;;;24.83;42.42;99415.94;5080773;28;20494;-65
2023/03/03 12:10:11;;;;;;;15.02;5.15;;;;;;;24.83;43.53;99415.94;5076994;28;20088;-66
2023/03/03 12:13:28;;;;;;;10.80;4.78;;;;;;;24.77;43.69;99417.03;5077630;28;20063;-64
2023/03/03 12:16:17;;;;;;;8.63;4.25;;;;;;;24.72;43.08;99425.13;5084672;28;20055;-65
2023/03/03 12:19:22;;;;;;;12.35;4.20;;;;;;;24.66;43.71;99423.47;5073673;28;20072;-65
2023/03/03 12:22:55;;;;;;;8.05;3.63;;;;;;;24.62;45.00;99425.09;5076571;28;20044;-65
2023/03/03 12:26:05;;;;;;;8.05;3.55;;;;;;;24.52;45.31;99420.47;5039245;28;20064;-69
2023/03/03 12:29:27;;;;;;;10.27;5.68;;;;;;;24.47;44.15;99420.44;5079780;28;20748;-61
2023/03/03 12:32:37;;;;;;;6.72;4.15;;;;;;;24.40;45.47;99429.91;5033821;28;20168;-60
2023/03/03 12:35:47;;;;;;;6.85;4.15;;;;;;;24.30;45.39;99427.94;5077704;28;20039;-60
2023/03/03 12:38:56;;;;;;;10.05;4.85;;;;;;;24.26;45.58;99428.75;5062395;28;20053;-65
2023/03/03 12:41:50;;;;;;;11.95;4.60;;;;;;;24.14;46.13;99437.06;5076329;28;20053;-67
2023/03/03 12:45:12;;;;;;;9.88;5.05;;;;;;;24.06;46.80;99441.09;5078633;28;20128;-69
2023/03/03 12:48:13;;;;;;;12.73;4.50;;;;;;;23.96;47.43;99443.72;5051303;28;20055;-67
2023/03/03 12:51:39;;;;;;;10.60;4.60;;;;;;;23.86;47.56;99446.34;5093127;28;20074;-61
2023/03/03 12:54:43;;;;;;;14.05;5.38;;;;;;;23.78;48.69;99443.31;4742385;28;10000027;-64
2023/03/03 12:57:49;;;;;;;12.65;5.75;;;;;;;23.76;48.72;99448.19;5096240;28;20047;-64
2023/03/03 13:00:59;;;;;;;9.55;4.72;;;;;;;23.63;49.27;99452.16;5062418;28;20051;-63
2023/03/03 13:04:10;;;;;;;8.68;4.45;;;;;;;23.54;50.22;99448.31;5052889;28;20052;-65
2023/03/03 13:07:17;;;;;;;13.60;4.82;;;;;;;23.44;51.31;99448.22;5020877;28;20045;-65
2023/03/03 13:10:15;;;;;;;18.60;4.95;;;;;;;23.33;49.87;99452.66;5023297;28;20044;-68
2023/03/03 13:13:34;;;;;;;9.23;5.00;;;;;;;23.24;50.90;99446.91;5063536;28;20036;-66
2023/03/03 13:16:54;;;;;;;17.00;7.00;;;;;;;23.24;51.28;99451.50;5067069;28;20076;-69
2023/03/03 13:20:04;;;;;;;12.95;5.70;;;;;;;23.13;51.12;99456.00;5062629;28;20056;-66
2023/03/03 13:23:18;;;;;;;16.48;5.70;;;;;;;23.03;52.40;99464.00;5062364;28;20048;-66
2023/03/03 13:26:16;;;;;;;16.73;6.65;;;;;;;22.99;52.74;99464.78;4980054;28;20078;-68
2023/03/03 13:29:10;;;;;;;15.20;6.00;;;;;;;22.99;52.83;99468.28;5054183;28;20126;-64